ADDS METAR Data INFO
IDs: Format: Raw Decoded Include TAF

Data at: 0852 UTC 22 Feb 2018

KEIK 220836Z AUTO 00000KT 10SM BKN120 M13/M15 A3012 RMK AO2 T11341150
KEIK 220818Z AUTO 00000KT 10SM SCT120 M13/M14 A3012 RMK AO2 T11291145
KEIK 220800Z AUTO 20003KT 7SM CLR M13/M15 A3013 RMK AO2 T11321148
KEIK 220736Z AUTO 20003KT 10SM CLR M12/M14 A3014 RMK AO2 T11251142
KEIK 220718Z AUTO 20003KT 10SM CLR M12/M14 A3014 RMK AO2 T11241143
KEIK 220700Z AUTO 21003KT 10SM CLR M12/M14 A3015 RMK AO2 T11201141
KEIK 220640Z AUTO 00000KT 10SM CLR M12/M14 A3015 RMK AO2 T11241145
KEIK 220617Z AUTO 00000KT 7SM CLR M13/M15 A3016 RMK AO2 T11271146
KEIK 220600Z AUTO 20003KT 7SM CLR M13/M15 A3016 RMK AO2 T11311149
KEIK 220536Z AUTO 00000KT 7SM CLR M13/M15 A3016 RMK AO2 T11341152
KEIK 220518Z AUTO 00000KT 7SM CLR M14/M15 A3016 RMK AO2 T11361154
KEIK 220500Z AUTO 20003KT 7SM CLR M13/M15 A3018 RMK AO2 T11351154
KEIK 220436Z AUTO 18003KT 7SM CLR M14/M15 A3018 RMK AO2 T11371152
KEIK 220418Z AUTO 00000KT 7SM CLR M14/M15 A3018 RMK AO2 T11361155
KEIK 220400Z AUTO 21003KT 7SM CLR M12/M14 A3018 RMK AO2 T11171138
KEIK 220040Z AUTO 01004KT 10SM CLR M09/M13 A3019 RMK AO2 T10921126
KEIK 220017Z AUTO 01003KT 10SM CLR M08/M12 A3019 RMK AO2 T10811123
KEIK 212354Z AUTO 35004KT 10SM CLR M07/M12 A3018 RMK AO2 T10731120
KEIK 212336Z AUTO 34004KT 10SM CLR M07/M12 A3018 RMK AO2 T10721117
KEIK 212318Z AUTO 34005KT 10SM CLR M07/M12 A3018 RMK AO2 T10721118
KEIK 212300Z AUTO 34007KT 10SM CLR M07/M12 A3018 RMK AO2 T10711120
KEIK 212236Z AUTO 32005KT 10SM CLR M07/M12 A3018 RMK AO2 T10671116
KEIK 212218Z AUTO 34005KT 10SM CLR M07/M12 A3018 RMK AO2 T10671120
KEIK 212200Z AUTO 34004KT 10SM CLR M07/M12 A3018 RMK AO2 T10711122
KEIK 212135Z AUTO 03003KT 10SM CLR M07/M12 A3018 RMK AO2 T10751125
KEIK 212118Z AUTO 04006KT 10SM CLR M08/M12 A3019 RMK AO2 T10781124
KEIK 212100Z AUTO 04005KT 10SM CLR M08/M13 A3019 RMK AO2 T10781127
KEIK 212036Z AUTO 06006KT 10SM CLR M08/M12 A3019 RMK AO2 T10791125
KEIK 212018Z AUTO 03005KT 10SM CLR M08/M12 A3020 RMK AO2 T10771124
KEIK 212000Z AUTO 02005KT 10SM CLR M08/M12 A3020 RMK AO2 T10791125
KEIK 211935Z AUTO 01005KT 7SM CLR M08/M13 A3022 RMK AO2 T10821126
KEIK 211917Z AUTO 01005KT 7SM CLR M09/M13 A3022 RMK AO2 T10861128
KEIK 211900Z AUTO 01004KT 7SM CLR M09/M13 A3023 RMK AO2 T10901130
KEIK 211836Z AUTO 02005KT 7SM CLR M09/M13 A3025 RMK AO2 T10901126
KEIK 211818Z AUTO 02004KT 7SM CLR M09/M12 A3026 RMK AO2 T10901124
KEIK 211800Z AUTO 02003KT 7SM CLR M10/M12 A3026 RMK AO2 T10981118
KEIK 211736Z AUTO 00000KT 7SM CLR M10/M11 A3027 RMK AO2 T11021113
KEIK 211718Z AUTO 00000KT 10SM CLR M11/M12 A3027 RMK AO2 T11081120
KEIK 211700Z AUTO 00000KT 10SM CLR M11/M12 A3028 RMK AO2 T11111125
KEIK 211636Z AUTO 00000KT 7SM CLR M11/M12 A3028 RMK AO2 T11121125
KEIK 211618Z AUTO 00000KT 10SM CLR M12/M14 A3028 RMK AO2 T11241137
KEIK 211600Z AUTO 00000KT 10SM CLR M14/M15 A3028 RMK AO2 T11391154
KEIK 211536Z AUTO 00000KT 10SM CLR M16/M18 A3028 RMK AO2 T11621182
KEIK 211518Z AUTO 00000KT 10SM CLR M18/M20 A3028 RMK AO2 T11811199
KEIK 211500Z AUTO 00000KT 7SM CLR M20/M22 A3028 RMK AO2 T11981218
KEIK 211436Z AUTO 24003KT 7SM CLR M21/M23 A3028 RMK AO2 T12061230
KEIK 211418Z AUTO 00000KT 10SM CLR M22/M24 A3028 RMK AO2 T12161241
KEIK 211400Z AUTO 00000KT 7SM CLR M21/M24 A3028 RMK AO2 T12151238
KEIK 211336Z AUTO 00000KT 10SM CLR M21/M23 A3028 RMK AO2 T12081233
KEIK 211318Z AUTO 00000KT 10SM CLR M21/M24 A3027 RMK AO2 T12141238
KEIK 211300Z AUTO 00000KT 10SM CLR M22/M25 A3027 RMK AO2 T12231249
KEIK 211236Z AUTO 00000KT 10SM CLR M20/M22 A3028 RMK AO2 T12051225
KEIK 210800Z AUTO 22003KT 10SM CLR M20/M23 A3025 RMK AO2 T12041226
KEIK 210736Z AUTO 00000KT 10SM CLR M20/M22 A3026 RMK AO2 T11971219
KEIK 210718Z AUTO 12004KT 10SM CLR M20/M22 A3026 RMK AO2 T11991222
KEIK 210700Z AUTO 00000KT 7SM CLR M20/M22 A3025 RMK AO2 T11991224
KEIK 210636Z AUTO 00000KT 5SM -SN CLR M19/M21 A3026 RMK AO2 T11931214
KEIK 210618Z AUTO 00000KT 7SM -SN CLR M19/M21 A3026 RMK AO2 T11871208
KEIK 210600Z AUTO 00000KT 7SM SCT042 M19/M21 A3025 RMK AO2 T11871206